Avon, Mississippi
Current Conditions -  °F | °C
As of 9:53 AM on Friday 28 Nov 2014 (Local Time) from KGLH Reporting Station
Clear Clear  
Wind Chill: 37°   Ceiling: Unl
Heat Index: 44°   Visibility: 10mi
Dew Point: 34°   Wind: 14mph
Humidity: 68%   Direction: 140°SE
Pressure: 30.4"   Gusts: NA
Location:  33.23°N, 91.05°W
Report Text: KGLH 281553Z AUTO 14012KT 10SM CLR 07/01 A3040 RMK AO2 SLP305 T00670011
Loading
Personal Weather Stations






























Interactive Weather Map New forecast layout! Learn more

10-Day Weather Forecast

Advertisements
Track Severe Weather on mobile